Time;durP1;ratioP1;P1;durP2;ratioP2;P2;SDS_P1;SDS_P2;PMS_P1;PMS_P2;Temp;Humidity;BMP_temperature;BMP_pressure;BME280_temperature;BME280_humidity;BME280_pressure;Samples;Min_cycle;Max_cycle;Signal;HPM_P1;HPM_P2
2022/11/03 00:01:49;;;;;;;1.77;1.67;;;9.90;99.90;;;9.96;93.25;101025.03;5023484;28;20636;-68
2022/11/03 00:04:19;;;;;;;2.03;1.70;;;9.80;99.90;;;10.01;92.60;101035.97;5014673;28;20993;-67
2022/11/03 00:06:52;;;;;;;7.70;2.30;;;9.80;99.90;;;10.05;92.81;101029.66;5030388;28;20994;-68
2022/11/03 00:09:21;;;;;;;2.03;1.17;;;9.80;99.90;;;10.03;92.23;101036.72;5030051;28;20735;-67
2022/11/03 00:11:50;;;;;;;2.47;1.47;;;9.90;99.90;;;9.88;93.32;101032.50;5034421;28;20608;-69
2022/11/03 00:14:17;;;;;;;1.80;1.70;;;9.80;99.90;;;9.91;93.65;101027.91;5032622;28;21064;-66
2022/11/03 00:16:45;;;;;;;3.07;2.13;;;9.70;99.90;;;9.83;93.15;101021.50;5034998;28;20692;-69
2022/11/03 00:19:14;;;;;;;2.80;1.73;;;9.70;99.90;;;9.82;93.79;101020.66;5033969;28;20639;-66
2022/11/03 00:21:42;;;;;;;1.33;1.33;;;9.70;99.90;;;9.79;93.85;101015.66;5025895;28;20627;-66
2022/11/03 00:24:09;;;;;;;3.10;1.77;;;9.70;99.90;;;9.88;92.84;101011.66;5034364;28;20652;-66
2022/11/03 00:26:37;;;;;;;2.83;1.73;;;9.70;99.90;;;9.99;92.50;101010.03;5026935;28;20640;-64
2022/11/03 00:29:11;;;;;;;2.93;1.30;;;9.70;99.90;;;9.95;92.79;101005.09;5024243;28;20636;-64
2022/11/03 00:31:41;;;;;;;1.83;1.37;;;9.70;99.90;;;9.81;93.59;101005.97;5025529;28;21052;-67
2022/11/03 00:34:08;;;;;;;6.53;1.70;;;9.70;99.90;;;9.87;92.87;100991.72;5033003;28;21056;-65
2022/11/03 00:36:41;;;;;;;3.43;1.80;;;9.70;99.90;;;9.88;93.14;100985.59;5033636;28;21227;-65
2022/11/03 00:39:09;;;;;;;2.53;1.70;;;9.70;99.90;;;9.81;93.44;100981.69;5015531;28;20613;-67
2022/11/03 00:41:37;;;;;;;5.07;2.00;;;9.60;99.90;;;9.79;93.42;100984.41;5033463;28;20688;-64
2022/11/03 00:44:04;;;;;;;4.20;1.80;;;9.60;99.90;;;9.91;92.66;100983.59;5033478;28;20648;-67
2022/11/03 00:46:33;;;;;;;10.60;1.80;;;9.70;99.90;;;9.83;92.80;100985.03;5033348;28;20637;-66
2022/11/03 00:49:03;;;;;;;2.47;1.87;;;9.70;99.90;;;9.83;93.04;100974.59;5032459;28;21281;-64
2022/11/03 00:51:30;;;;;;;1.30;1.20;;;9.70;99.90;;;9.72;93.86;100970.06;5032444;28;21172;-64
2022/11/03 00:54:00;;;;;;;4.73;2.10;;;9.60;99.90;;;9.75;93.99;100979.47;5032490;28;20656;-65
2022/11/03 00:56:37;;;;;;;3.93;1.70;;;9.60;99.90;;;9.69;93.84;100974.66;5033488;28;21242;-67
2022/11/03 00:59:05;;;;;;;5.37;1.60;;;9.60;99.90;;;9.89;92.91;100976.81;5032487;28;20636;-64
2022/11/03 01:01:39;;;;;;;1.63;1.50;;;9.60;99.90;;;9.83;93.40;100969.38;5034366;28;20672;-64
2022/11/03 01:07:01;;;;;;;2.83;2.53;;;9.70;99.90;;;9.93;92.25;100965.25;5017433;28;20608;-64
2022/11/03 01:09:38;;;;;;;3.10;1.80;;;9.70;99.90;;;9.91;92.67;100977.56;5013343;28;20711;-64
2022/11/03 01:12:17;;;;;;;1.30;1.30;;;9.70;99.90;;;9.93;92.45;100973.91;5032338;28;20709;-64
2022/11/03 01:14:48;;;;;;;2.20;2.00;;;9.70;99.90;;;9.95;92.09;100976.41;5032128;28;20721;-64
2022/11/03 01:17:25;;;;;;;1.90;1.80;;;9.70;99.90;;;9.98;91.77;100976.25;5033518;28;21305;-67
2022/11/03 01:19:53;;;;;;;1.30;1.20;;;9.70;99.90;;;9.79;92.57;100960.09;5032220;28;20642;-64
2022/11/03 01:22:22;;;;;;;3.80;2.10;;;9.70;99.90;;;9.83;92.18;100961.56;5033127;28;20662;-64
2022/11/03 01:24:50;;;;;;;3.13;2.00;;;9.60;99.90;;;9.68;93.26;100957.31;5032452;28;20656;-64
2022/11/03 01:27:19;;;;;;;4.13;1.27;;;9.60;99.90;;;9.79;92.63;100954.88;5012613;28;21338;-65
2022/11/03 01:29:46;;;;;;;3.03;1.77;;;9.60;99.90;;;9.80;92.14;100943.50;5033194;28;20626;-65
2022/11/03 01:32:13;;;;;;;3.67;2.10;;;9.60;99.90;;;9.69;92.96;100953.81;5033964;28;20633;-64
2022/11/03 01:34:40;;;;;;;2.27;2.10;;;9.50;99.90;;;9.81;92.12;100953.84;5033737;28;20669;-66
2022/11/03 01:37:08;;;;;;;5.90;2.27;;;9.50;99.90;;;9.84;91.61;100952.81;5015265;28;21422;-64
2022/11/03 01:39:34;;;;;;;2.47;1.80;;;9.50;99.90;;;9.76;92.17;100950.69;5033269;28;20634;-64
2022/11/03 01:42:01;;;;;;;2.13;1.70;;;9.50;99.90;;;9.69;92.74;100938.97;5031841;28;21053;-64
2022/11/03 01:44:38;;;;;;;1.67;1.33;;;9.50;99.90;;;9.63;93.01;100934.16;5053358;22;20680;-66
2022/11/03 01:47:19;;;;;;;1.27;1.17;;;9.50;99.90;;;9.40;94.59;100932.16;5033450;28;20645;-66
2022/11/03 01:49:56;;;;;;;5.20;1.70;;;9.40;99.90;;;9.44;94.28;100928.44;5051685;28;20627;-66
2022/11/03 01:52:47;;;;;;;2.13;1.73;;;9.30;99.90;;;9.37;94.37;100930.59;5034290;28;20635;-66
2022/11/03 01:55:31;;;;;;;2.83;2.10;;;9.30;99.90;;;9.44;94.34;100925.84;5033830;28;20809;-66
2022/11/03 01:58:37;;;;;;;1.63;1.60;;;9.30;99.90;;;9.50;94.44;100927.22;5034156;28;20655;-64
2022/11/03 02:01:04;;;;;;;11.57;1.87;;;9.30;99.90;;;9.54;94.39;100915.69;5034401;28;21286;-66
2022/11/03 02:03:37;;;;;;;1.50;1.40;;;9.30;99.90;;;9.50;94.12;100919.41;5051763;28;20634;-66
2022/11/03 02:06:05;;;;;;;1.60;1.47;;;9.30;99.90;;;9.42;94.71;100911.22;5034029;28;20631;-66
2022/11/03 02:08:55;;;;;;;4.63;2.37;;;9.30;99.90;;;9.41;94.83;100902.59;5050501;28;20640;-66
2022/11/03 02:14:14;;;;;;;1.70;1.60;;;9.30;99.90;;;9.51;94.05;100895.03;5051311;28;20663;-65
2022/11/03 02:16:49;;;;;;;5.80;1.67;;;9.30;99.90;;;9.57;93.18;100894.63;5035587;28;21216;-66
2022/11/03 02:19:43;;;;;;;2.87;2.10;;;9.30;99.90;;;9.60;93.93;100902.28;5037370;28;21226;-66
2022/11/03 02:22:47;;;;;;;1.30;1.20;;;9.30;99.90;;;9.65;93.63;100889.78;5043025;28;20824;-66
2022/11/03 02:25:41;;;;;;;1.30;1.10;;;9.30;99.90;;;9.58;93.93;100878.09;5051853;28;20656;-66
2022/11/03 02:28:10;;;;;;;2.50;1.60;;;9.40;99.90;;;9.62;93.87;100872.59;5050951;28;20627;-66
2022/11/03 02:30:51;;;;;;;2.03;1.70;;;9.40;99.90;;;9.52;94.48;100860.25;5033677;28;20619;-66
2022/11/03 02:33:53;;;;;;;3.53;1.70;;;9.30;99.90;;;9.62;94.05;100861.31;5033147;28;20642;-66
2022/11/03 02:36:30;;;;;;;3.10;2.40;;;9.30;99.90;;;9.59;93.95;100864.13;5046059;28;20658;-66
2022/11/03 02:39:02;;;;;;;8.80;2.20;;;9.40;99.90;;;9.70;93.46;100861.66;5016920;28;20720;-67
2022/11/03 02:41:34;;;;;;;7.50;2.60;;;9.40;99.90;;;9.73;93.64;100856.25;5033119;28;20632;-66
2022/11/03 02:44:03;;;;;;;3.67;2.47;;;9.40;99.90;;;9.71;93.74;100858.13;5033702;28;20631;-65
2022/11/03 02:46:33;;;;;;;2.67;2.13;;;9.40;99.90;;;9.75;93.59;100847.38;5032859;28;20690;-66
2022/11/03 02:49:00;;;;;;;4.40;1.60;;;9.40;99.90;;;9.75;93.17;100847.38;5036894;28;20632;-66
2022/11/03 02:51:27;;;;;;;8.40;2.20;;;9.50;99.90;;;9.82;92.74;100840.00;5049795;28;21053;-65
2022/11/03 02:54:18;;;;;;;4.90;2.00;;;9.50;99.90;;;9.71;92.84;100837.28;5032890;28;20619;-66
2022/11/03 02:56:56;;;;;;;4.40;2.33;;;9.50;99.90;;;9.72;92.31;100828.53;5050301;28;20648;-66
2022/11/03 02:59:30;;;;;;;1.50;1.40;;;9.50;99.90;;;9.73;92.72;100822.38;5051197;28;20647;-66
2022/11/03 03:02:09;;;;;;;2.50;1.93;;;9.50;99.90;;;9.70;92.63;100825.19;5017239;28;21059;-65
2022/11/03 03:04:49;;;;;;;2.10;2.00;;;9.50;99.90;;;9.76;92.61;100824.78;5032764;28;20636;-66
2022/11/03 03:07:22;;;;;;;3.40;2.13;;;9.40;99.90;;;9.67;93.03;100820.19;5032455;28;20642;-66
2022/11/03 03:09:56;;;;;;;3.27;2.50;;;9.40;99.90;;;9.67;93.35;100828.00;5029941;28;20616;-67
2022/11/03 03:12:25;;;;;;;4.60;2.60;;;9.40;99.90;;;9.78;92.79;100815.09;5012841;28;20603;-66
2022/11/03 03:14:54;;;;;;;6.90;2.03;;;9.50;99.90;;;9.75;92.54;100817.91;5050645;28;20663;-66
2022/11/03 03:17:57;;;;;;;5.70;1.97;;;9.40;99.90;;;9.79;92.01;100809.78;5016352;28;20615;-66
2022/11/03 03:20:32;;;;;;;6.40;1.60;;;9.40;99.90;;;9.66;91.62;100801.09;5045768;28;21174;-66
2022/11/03 03:23:28;;;;;;;2.17;2.00;;;9.40;99.90;;;9.64;91.57;100799.53;5038665;28;20626;-66
2022/11/03 03:26:28;;;;;;;2.30;2.10;;;9.40;99.90;;;9.68;91.71;100795.78;5049054;28;20736;-66
2022/11/03 03:29:01;;;;;;;1.77;1.67;;;9.40;99.90;;;9.50;92.16;100789.19;5032103;28;20681;-66
2022/11/03 03:31:35;;;;;;;2.27;1.90;;;9.30;99.90;;;9.47;92.23;100786.78;5039032;28;20642;-66
2022/11/03 03:34:03;;;;;;;2.93;2.63;;;9.30;99.90;;;9.46;92.24;100788.53;5050129;28;21256;-66
2022/11/03 03:36:50;;;;;;;4.33;1.80;;;9.20;99.90;;;9.55;91.80;100784.50;5055560;28;20635;-66
2022/11/03 03:39:20;;;;;;;2.93;2.53;;;9.20;99.90;;;9.60;91.19;100785.03;5023294;28;20792;-66
2022/11/03 03:41:48;;;;;;;3.10;1.83;;;9.20;99.90;;;9.47;91.82;100781.56;5049804;28;20616;-66
2022/11/03 03:44:16;;;;;;;3.83;2.40;;;9.20;99.90;;;9.49;91.84;100782.28;5052163;28;20662;-66
2022/11/03 03:47:03;;;;;;;3.30;2.37;;;9.20;99.90;;;9.48;91.95;100780.59;5032568;28;20614;-66
2022/11/03 03:49:30;;;;;;;2.50;2.30;;;9.20;99.90;;;9.52;91.88;100774.28;5031783;28;20694;-65
2022/11/03 03:51:57;;;;;;;2.67;2.30;;;9.20;99.90;;;9.54;91.80;100782.84;5049972;28;20618;-66
2022/11/03 03:54:23;;;;;;;2.50;2.30;;;9.20;99.90;;;9.54;91.91;100775.03;5032460;28;20666;-66
2022/11/03 03:57:00;;;;;;;3.53;2.07;;;9.20;99.90;;;9.56;91.14;100765.34;5050674;28;20645;-65
2022/11/03 03:59:27;;;;;;;3.13;2.53;;;9.20;99.90;;;9.57;90.80;100765.22;5033351;28;20663;-66
2022/11/03 04:01:54;;;;;;;2.60;2.40;;;9.20;99.90;;;9.55;91.14;100776.69;5015371;28;21185;-66
2022/11/03 04:04:21;;;;;;;4.90;2.43;;;9.20;99.90;;;9.56;90.87;100775.75;5049502;28;21225;-66
2022/11/03 04:06:48;;;;;;;3.43;2.03;;;9.20;99.90;;;9.59;90.43;100773.78;5031643;28;20624;-66
2022/11/03 04:09:15;;;;;;;2.27;2.00;;;9.20;99.90;;;9.52;90.59;100763.88;5048850;28;20635;-66
2022/11/03 04:23:03;;;;;;;2.60;1.97;;;9.00;99.90;;;9.11;91.51;100758.72;5047294;28;20705;-65
2022/11/03 04:25:33;;;;;;;2.90;1.67;;;8.90;99.90;;;9.09;91.75;100752.78;5025468;28;20646;-65
2022/11/03 04:28:01;;;;;;;2.43;2.23;;;8.90;99.90;;;9.01;91.98;100752.41;5031178;28;21207;-66
2022/11/03 04:30:28;;;;;;;2.27;1.83;;;8.80;99.90;;;9.07;91.93;100746.84;5031595;28;21228;-66
2022/11/03 04:32:54;;;;;;;3.20;1.63;;;8.80;99.90;;;8.98;92.15;100740.47;5049088;28;20615;-66
2022/11/03 04:35:25;;;;;;;2.10;1.93;;;8.80;99.90;;;8.78;92.64;100738.25;5030649;28;21206;-65
2022/11/03 04:38:07;;;;;;;1.67;1.60;;;8.70;99.90;;;8.84;92.74;100732.66;5012247;28;20668;-65
2022/11/03 04:40:35;;;;;;;3.90;1.53;;;8.60;99.90;;;8.64;93.91;100735.69;5047379;28;20701;-65
2022/11/03 04:43:10;;;;;;;2.77;1.53;;;8.50;99.90;;;8.73;93.08;100726.50;5047706;28;20632;-66
2022/11/03 04:45:37;;;;;;;3.40;1.57;;;8.50;99.90;;;8.61;94.55;100735.88;5031719;28;20643;-66
2022/11/03 04:48:32;;;;;;;2.00;1.90;;;8.50;99.90;;;8.59;94.60;100735.97;5015785;28;20655;-66
2022/11/03 04:51:10;;;;;;;2.17;1.87;;;8.40;99.90;;;8.72;95.09;100737.81;5031274;28;20691;-66
2022/11/03 04:53:37;;;;;;;4.63;2.80;;;8.40;99.90;;;8.68;94.36;100737.19;5031602;28;21105;-65
2022/11/03 04:56:15;;;;;;;3.60;2.60;;;8.40;99.90;;;8.68;94.92;100739.78;5034862;28;20647;-67
2022/11/03 04:58:42;;;;;;;3.83;2.30;;;8.40;99.90;;;8.75;95.65;100735.03;5052215;28;20654;-66
2022/11/03 05:01:13;;;;;;;3.77;2.47;;;8.40;99.90;;;8.78;94.83;100727.84;5052853;28;20639;-66
2022/11/03 05:03:45;;;;;;;5.63;2.50;;;8.50;99.90;;;8.80;94.68;100720.78;5035084;28;20626;-66
2022/11/03 05:06:22;;;;;;;2.90;2.47;;;8.50;99.90;;;8.87;94.92;100722.09;5019172;28;20624;-66
2022/11/03 05:08:55;;;;;;;2.23;1.87;;;8.50;99.90;;;8.83;93.55;100715.41;5036253;28;21202;-66
2022/11/03 05:11:35;;;;;;;2.20;2.10;;;8.60;99.90;;;8.88;93.67;100713.31;5058966;28;20688;-66
2022/11/03 05:14:22;;;;;;;1.60;1.50;;;8.60;99.90;;;8.69;94.10;100707.63;5046287;28;20650;-66
2022/11/03 05:16:52;;;;;;;3.97;1.37;;;8.60;99.90;;;8.73;94.02;100695.28;5052976;28;20646;-66
2022/11/03 05:19:33;;;;;;;2.20;1.87;;;8.50;99.90;;;8.67;94.20;100696.47;5034423;28;21280;-66
2022/11/03 05:22:02;;;;;;;3.20;2.50;;;8.50;99.90;;;8.67;94.31;100696.47;5034595;28;20624;-66
2022/11/03 05:24:30;;;;;;;7.97;3.40;;;8.50;99.90;;;8.66;94.56;100692.22;5034886;28;20655;-65
2022/11/03 05:26:58;;;;;;;2.60;2.30;;;8.40;99.90;;;8.74;94.75;100687.38;5034602;28;20616;-66
2022/11/03 05:29:34;;;;;;;5.77;2.90;;;8.40;99.90;;;8.75;94.95;100688.22;5033779;28;21280;-66
2022/11/03 05:32:02;;;;;;;4.47;2.50;;;8.50;99.90;;;8.81;93.76;100687.81;5015880;28;21240;-65
2022/11/03 05:34:47;;;;;;;3.23;2.40;;;8.50;99.90;;;8.75;95.07;100683.84;5014059;28;21043;-66
2022/11/03 05:37:30;;;;;;;2.67;2.47;;;8.50;99.90;;;8.80;94.56;100683.53;5047517;28;20643;-66
2022/11/03 05:40:20;;;;;;;12.73;3.17;;;8.50;99.90;;;8.85;94.13;100679.72;5050624;28;20690;-66
2022/11/03 05:42:57;;;;;;;2.30;2.10;;;8.50;99.90;;;8.84;94.01;100666.81;5039558;28;20645;-65
2022/11/03 05:45:33;;;;;;;2.53;2.33;;;8.60;99.90;;;8.81;94.09;100661.78;5042232;28;20635;-65
2022/11/03 05:48:02;;;;;;;2.40;2.20;;;8.50;99.90;;;8.64;94.36;100660.28;5055986;28;20628;-64
2022/11/03 05:50:33;;;;;;;1.07;1.07;;;8.50;99.90;;;8.71;93.87;100647.72;5052290;28;20659;-65
2022/11/03 05:53:30;;;;;;;2.43;1.67;;;8.50;99.90;;;8.76;93.67;100636.06;5032272;28;20608;-66
2022/11/03 05:56:01;;;;;;;2.60;2.40;;;8.40;99.90;;;8.45;94.85;100628.56;5038700;28;20708;-66
2022/11/03 05:58:40;;;;;;;1.37;1.30;;;8.40;99.90;;;8.41;95.81;100632.28;5034323;28;20671;-66
2022/11/03 06:01:27;;;;;;;2.97;2.03;;;8.30;99.90;;;8.35;95.66;100630.88;5034240;28;21075;-66
2022/11/03 06:03:55;;;;;;;5.30;2.57;;;8.30;99.90;;;8.35;95.85;100628.28;5052203;28;20619;-65
2022/11/03 06:06:28;;;;;;;2.17;1.90;;;8.20;99.90;;;8.40;96.45;100630.59;5051994;28;20608;-65
2022/11/03 06:09:02;;;;;;;2.93;2.67;;;8.20;99.90;;;8.50;96.21;100629.09;5049905;28;20696;-66
2022/11/03 06:11:36;;;;;;;4.17;2.50;;;8.20;99.90;;;8.59;96.08;100623.31;5041076;28;20637;-65
2022/11/03 06:14:26;;;;;;;2.27;2.07;;;8.30;99.90;;;8.71;95.56;100622.50;5050857;28;20709;-65
2022/11/03 06:17:16;;;;;;;3.60;2.97;;;8.40;99.90;;;8.64;94.36;100623.03;5050145;28;20694;-66
2022/11/03 06:19:46;;;;;;;2.17;1.47;;;8.40;99.90;;;8.47;95.04;100622.34;5050483;28;21304;-66
2022/11/03 06:22:23;;;;;;;2.60;2.40;;;8.40;99.90;;;8.43;95.90;100625.22;5038074;28;20687;-66
2022/11/03 06:24:55;;;;;;;3.70;2.27;;;8.30;99.90;;;8.45;96.44;100628.56;5050018;28;20688;-65
2022/11/03 06:27:23;;;;;;;2.10;2.00;;;8.30;99.90;;;8.52;96.28;100622.03;5050125;28;20637;-67
2022/11/03 06:29:57;;;;;;;3.13;1.70;;;8.30;99.90;;;8.68;95.48;100622.72;5059567;28;20696;-63
2022/11/03 06:32:24;;;;;;;3.37;1.90;;;8.40;99.90;;;8.57;95.71;100614.78;5046115;28;20637;-65
2022/11/03 06:34:56;;;;;;;3.67;2.07;;;8.40;99.90;;;8.61;96.28;100608.44;5055911;28;20643;-65
2022/11/03 06:37:32;;;;;;;2.10;2.00;;;8.40;99.90;;;8.76;95.38;100611.81;5049157;28;20634;-66
2022/11/03 06:40:14;;;;;;;2.30;2.20;;;8.50;99.90;;;8.97;94.26;100606.06;5064990;28;20653;-65
2022/11/03 06:42:41;;;;;;;3.30;3.03;;;8.60;99.90;;;9.18;93.66;100614.22;5050853;28;20635;-66
2022/11/03 06:45:32;;;;;;;4.20;3.40;;;8.70;99.90;;;9.36;93.08;100613.84;5061580;28;20663;-65
2022/11/03 06:48:10;;;;;;;3.13;2.60;;;8.80;99.90;;;9.56;91.63;100609.06;5044370;28;20644;-63
2022/11/03 06:50:37;;;;;;;7.13;3.67;;;9.00;99.90;;;9.71;90.31;100615.81;5040469;28;20640;-66
2022/11/03 06:53:10;;;;;;;8.67;3.07;;;9.10;99.90;;;9.89;90.06;100617.16;5064763;28;20627;-66
2022/11/03 06:55:39;;;;;;;4.60;2.90;;;9.30;99.90;;;10.05;88.71;100615.97;5050672;28;20665;-65
2022/11/03 06:58:29;;;;;;;4.10;2.80;;;9.40;99.90;;;10.21;87.22;100609.72;5050777;28;20604;-66
2022/11/03 07:01:14;;;;;;;7.10;3.27;;;9.60;99.90;;;10.30;86.43;100591.66;5050260;28;21216;-67
2022/11/03 07:03:41;;;;;;;20.63;3.60;;;9.70;99.90;;;10.39;85.94;100587.56;5052161;28;20619;-66
2022/11/03 07:06:17;;;;;;;3.07;2.83;;;9.70;99.90;;;10.54;85.13;100578.63;5017791;28;20619;-66
2022/11/03 07:08:47;;;;;;;4.93;2.63;;;9.80;99.90;;;10.88;85.90;100576.03;5050076;28;20647;-65
2022/11/03 07:11:20;;;;;;;3.10;2.80;;;10.00;99.90;;;11.18;82.76;100578.13;5065777;28;20608;-66
2022/11/03 07:13:55;;;;;;;3.17;2.87;;;10.20;99.90;;;11.25;81.33;100578.50;5039603;28;21282;-66
2022/11/03 07:16:35;;;;;;;6.30;3.23;;;10.40;99.90;;;11.27;81.04;100577.44;5051113;28;21326;-66
2022/11/03 07:19:20;;;;;;;7.30;2.80;;;10.50;99.90;;;11.30;81.24;100579.00;5050915;28;20647;-66
2022/11/03 07:21:58;;;;;;;4.63;2.63;;;10.60;99.90;;;11.39;80.88;100573.09;5028801;28;20636;-67
2022/11/03 07:24:29;;;;;;;6.80;2.57;;;10.70;99.90;;;11.57;79.58;100579.50;5049070;28;20648;-66
2022/11/03 07:27:20;;;;;;;3.53;2.53;;;10.80;99.90;;;12.07;77.86;100579.06;5050395;28;20619;-66
2022/11/03 07:29:50;;;;;;;3.00;2.40;;;11.00;99.90;;;12.35;75.87;100570.66;5046889;28;20650;-66
2022/11/03 07:32:24;;;;;;;3.20;2.33;;;11.30;99.90;;;12.23;76.17;100562.97;5032298;28;20631;-67
2022/11/03 07:34:52;;;;;;;3.17;2.60;;;11.40;99.90;;;12.56;75.02;100564.66;5032177;28;21032;-66
2022/11/03 07:37:25;;;;;;;2.97;2.70;;;11.60;99.90;;;12.51;74.37;100561.59;5048644;28;20608;-66
2022/11/03 07:39:52;;;;;;;3.20;2.70;;;11.60;99.90;;;12.37;76.00;100555.66;5044384;28;20709;-66
2022/11/03 07:42:22;;;;;;;3.60;2.93;;;11.60;99.90;;;12.37;75.17;100555.66;5028517;28;20616;-66
2022/11/03 07:44:49;;;;;;;5.47;2.80;;;11.60;99.90;;;11.98;75.96;100547.56;5062386;22;20750;-65
2022/11/03 07:47:25;;;;;;;3.17;2.70;;;11.60;99.90;;;11.49;79.45;100532.25;4998733;28;20625;-65
2022/11/03 07:49:54;;;;;;;3.47;2.30;;;11.30;99.90;;;12.08;77.38;100530.19;5041296;28;21215;-65
2022/11/03 07:52:23;;;;;;;3.00;2.33;;;11.40;99.90;;;12.33;75.92;100529.88;5048100;28;20616;-65
2022/11/03 07:54:53;;;;;;;3.00;2.70;;;11.50;99.90;;;12.63;73.67;100518.72;5048984;28;20716;-65
2022/11/03 07:57:31;;;;;;;5.03;2.67;;;11.70;99.90;;;12.90;72.94;100524.31;5049275;28;20619;-65
2022/11/03 08:00:06;;;;;;;7.30;3.80;;;11.90;99.90;;;13.00;72.87;100509.47;5059652;28;21268;-65
2022/11/03 08:02:51;;;;;;;6.40;2.83;;;12.00;99.90;;;13.18;72.58;100508.78;5048582;28;20615;-65
2022/11/03 08:05:17;;;;;;;3.87;2.83;;;12.10;99.90;;;13.42;71.74;100507.66;5031807;28;20636;-65
2022/11/03 08:07:49;;;;;;;4.23;2.97;;;12.30;99.90;;;13.61;69.81;100505.94;5049696;28;20694;-65
2022/11/03 08:10:16;;;;;;;2.90;2.70;;;12.40;99.90;;;13.97;69.38;100489.63;5049633;28;20640;-65
2022/11/03 08:12:43;;;;;;;6.30;3.57;;;12.70;99.90;;;14.39;68.00;100481.56;5049821;28;20665;-66
2022/11/03 08:15:10;;;;;;;3.90;2.57;;;12.90;99.90;;;14.94;65.97;100482.59;5050757;28;20675;-66
2022/11/03 08:17:37;;;;;;;4.90;3.43;;;13.30;99.90;;;15.64;63.47;100476.84;5045834;28;20643;-65
2022/11/03 08:20:04;;;;;;;4.87;3.33;;;13.80;99.90;;;16.46;61.21;100474.91;5049412;28;20648;-66
2022/11/03 08:22:31;;;;;;;3.97;3.20;;;14.40;99.90;;;17.52;58.75;100472.88;5049576;28;20627;-65
2022/11/03 08:24:58;;;;;;;5.47;3.53;;;15.00;99.90;;;19.28;53.70;100471.38;5051022;28;20628;-65
2022/11/03 08:27:26;;;;;;;6.20;3.20;;;16.00;99.90;;;21.50;48.08;100482.56;5049828;28;20662;-65
2022/11/03 08:29:53;;;;;;;8.33;4.30;;;17.40;99.90;;;23.55;43.11;100485.16;5043535;28;20632;-65
2022/11/03 08:32:20;;;;;;;7.03;4.53;;;18.90;99.90;;;26.14;38.79;100492.59;5053180;28;20619;-65
2022/11/03 08:34:46;;;;;;;6.70;3.50;;;20.60;99.90;;;29.06;33.14;100481.59;5053832;28;20978;-65
2022/11/03 08:37:13;;;;;;;6.23;4.10;;;22.60;96.20;;;31.78;28.82;100481.88;5052891;28;21262;-66
2022/11/03 08:39:40;;;;;;;5.80;4.33;;;24.70;90.10;;;33.02;27.41;100482.53;5053821;28;20718;-67
2022/11/03 08:42:07;;;;;;;7.10;4.60;;;26.40;79.70;;;32.94;26.49;100485.69;5052030;28;20620;-64
2022/11/03 08:44:34;;;;;;;9.13;4.77;;;27.10;73.30;;;32.17;27.55;100484.47;5043680;28;21024;-65
2022/11/03 08:47:01;;;;;;;5.00;4.50;;;27.10;69.80;;;32.01;27.75;100487.00;5038421;28;20621;-64
2022/11/03 08:49:27;;;;;;;8.83;4.80;;;27.10;68.80;;;32.55;26.67;100476.19;5052565;28;20630;-65
2022/11/03 08:51:54;;;;;;;4.80;4.10;;;27.30;67.40;;;32.21;26.70;100469.38;5057175;28;20674;-64
2022/11/03 08:54:21;;;;;;;10.53;4.10;;;27.50;65.80;;;30.80;28.76;100456.75;5047562;28;20639;-64
2022/11/03 08:56:48;;;;;;;4.10;3.70;;;26.90;65.50;;;31.25;28.63;100454.75;5051259;28;20640;-65
2022/11/03 08:59:16;;;;;;;8.07;3.90;;;26.90;65.60;;;33.03;26.05;100451.69;5052175;28;20677;-65
2022/11/03 09:01:43;;;;;;;4.37;4.00;;;27.60;65.70;;;33.73;25.08;100455.84;5052145;28;20731;-64
2022/11/03 09:04:10;;;;;;;5.00;3.67;;;28.20;63.10;;;32.23;26.67;100442.94;5052136;28;20619;-64
2022/11/03 09:06:37;;;;;;;6.00;3.90;;;27.90;62.10;;;29.47;30.01;100441.16;5048562;28;20624;-64
2022/11/03 09:09:04;;;;;;;5.37;3.90;;;26.60;63.50;;;26.89;33.87;100429.25;5059822;28;20640;-64
2022/11/03 09:11:51;;;;;;;9.17;3.87;;;25.10;65.90;;;24.68;37.52;100435.44;5049349;28;21080;-65
2022/11/03 09:14:18;;;;;;;6.30;3.97;;;23.40;69.80;;;22.95;41.25;100425.41;5051508;28;20635;-64
2022/11/03 09:16:45;;;;;;;6.40;3.30;;;22.00;73.20;;;21.09;45.74;100418.53;5052543;28;21189;-63
2022/11/03 09:19:12;;;;;;;3.87;2.87;;;20.70;77.50;;;19.30;49.80;100421.75;5052204;28;21063;-63
2022/11/03 09:21:38;;;;;;;5.23;2.90;;;19.40;81.40;;;18.81;51.52;100415.78;5053550;28;21171;-63
2022/11/03 09:24:06;;;;;;;5.43;3.10;;;18.50;86.90;;;17.88;54.50;100416.25;5050919;28;20987;-66
2022/11/03 09:26:33;;;;;;;2.97;2.27;;;17.60;91.50;;;16.74;57.78;100410.59;5048181;28;20617;-62
2022/11/03 09:28:59;;;;;;;3.90;2.27;;;16.90;95.60;;;16.50;59.09;100397.28;5048409;28;20632;-63
2022/11/03 09:31:28;;;;;;;7.97;2.50;;;16.20;99.90;;;15.91;62.40;100390.00;5052475;28;20631;-63
2022/11/03 09:33:54;;;;;;;6.50;2.50;;;15.70;99.90;;;14.43;67.20;100384.03;5038755;28;20631;-61
2022/11/03 09:36:21;;;;;;;2.87;2.03;;;15.00;99.90;;;14.43;67.88;100372.69;5034245;28;20664;-63
2022/11/03 09:38:48;;;;;;;3.40;1.90;;;14.60;99.90;;;14.20;69.54;100371.31;5045144;28;20636;-63
2022/11/03 09:41:18;;;;;;;3.60;2.47;;;14.30;99.90;;;14.56;68.45;100367.97;5051909;28;21254;-64
2022/11/03 09:44:01;;;;;;;4.10;2.27;;;14.20;99.90;;;14.50;68.78;100368.53;5049211;28;20643;-64
2022/11/03 09:46:29;;;;;;;3.77;1.80;;;14.10;99.90;;;14.32;69.34;100364.97;5044977;28;20670;-64
2022/11/03 09:48:57;;;;;;;6.43;2.87;;;13.90;99.90;;;14.57;69.14;100364.34;5026249;28;20673;-63
2022/11/03 09:51:26;;;;;;;2.83;2.27;;;14.00;99.90;;;14.85;68.32;100359.97;5049578;28;20694;-65
2022/11/03 09:53:55;;;;;;;4.53;1.97;;;14.10;99.90;;;14.87;67.78;100353.63;5034985;28;20612;-64
2022/11/03 09:56:24;;;;;;;2.43;2.23;;;14.10;99.90;;;14.69;68.54;100345.66;5034210;28;20636;-63
2022/11/03 09:58:51;;;;;;;3.10;1.93;;;14.10;99.90;;;14.39;70.26;100334.56;5043638;28;21245;-64
2022/11/03 10:01:21;;;;;;;3.70;1.97;;;14.00;99.90;;;14.46;69.32;100325.16;5023506;28;20676;-63
2022/11/03 10:03:49;;;;;;;2.20;2.00;;;14.00;99.90;;;14.60;68.88;100322.06;5045856;28;20635;-63
2022/11/03 10:06:16;;;;;;;4.60;2.17;;;14.10;99.90;;;14.90;67.88;100329.72;5049086;28;21074;-63
2022/11/03 10:08:45;;;;;;;3.73;1.87;;;14.20;99.90;;;15.22;67.11;100324.84;5046515;28;20668;-64
2022/11/03 10:11:12;;;;;;;2.83;2.13;;;14.30;99.90;;;15.75;65.04;100321.47;5034878;28;20620;-63
2022/11/03 10:13:44;;;;;;;5.77;3.00;;;14.60;99.90;;;15.86;64.22;100322.06;5028302;28;21039;-64
2022/11/03 10:16:16;;;;;;;3.90;2.23;;;14.80;99.90;;;16.06;63.03;100315.63;5031426;28;20717;-64
2022/11/03 10:18:43;;;;;;;5.03;1.67;;;15.00;99.90;;;16.78;60.94;100311.88;5030385;28;20615;-62
2022/11/03 10:21:34;;;;;;;6.13;1.83;;;15.40;99.90;;;16.33;61.90;100309.44;5048245;28;20660;-64
2022/11/03 10:24:01;;;;;;;3.03;1.77;;;15.50;99.90;;;16.06;62.99;100309.53;5033238;28;20615;-64
2022/11/03 10:26:34;;;;;;;2.60;2.40;;;15.30;99.90;;;15.47;65.46;100299.66;5052064;28;20674;-64
2022/11/03 10:29:08;;;;;;;2.43;2.23;;;15.10;99.90;;;15.49;64.92;100293.28;5049622;28;20686;-64
2022/11/03 10:31:40;;;;;;;2.90;2.23;;;14.90;99.90;;;15.56;65.85;100290.03;5042979;28;20608;-63
2022/11/03 10:34:35;;;;;;;2.00;1.90;;;14.80;99.90;;;15.41;66.30;100277.41;5033557;28;20620;-64
2022/11/03 10:37:25;;;;;;;5.40;2.43;;;14.70;99.90;;;15.33;67.14;100271.25;5051252;28;21263;-63
2022/11/03 10:39:54;;;;;;;6.00;2.60;;;14.70;99.90;;;15.24;67.05;100264.25;5052161;28;20997;-64
2022/11/03 10:42:29;;;;;;;2.33;2.23;;;14.70;99.90;;;15.17;66.90;100264.00;5051312;28;20673;-63
2022/11/03 10:45:16;;;;;;;3.03;1.67;;;14.60;99.90;;;14.79;68.26;100258.97;5051178;28;20699;-65
2022/11/03 10:47:43;;;;;;;7.00;2.43;;;14.50;99.90;;;14.68;68.47;100252.13;5051884;28;21021;-64
2022/11/03 10:50:25;;;;;;;6.40;1.90;;;14.30;99.90;;;14.25;70.59;100251.00;5050652;28;20677;-64
2022/11/03 10:52:53;;;;;;;2.80;2.60;;;14.00;99.90;;;14.69;68.81;100238.00;5050603;28;20689;-63
2022/11/03 10:55:22;;;;;;;4.77;2.00;;;14.10;99.90;;;14.42;69.60;100230.13;5051540;28;21273;-63
2022/11/03 10:57:56;;;;;;;2.37;2.07;;;14.00;99.90;;;14.72;68.92;100221.13;5050569;28;20991;-63
2022/11/03 11:00:24;;;;;;;6.63;1.80;;;14.00;99.90;;;14.31;70.68;100216.38;5033601;28;20660;-63
2022/11/03 11:02:58;;;;;;;3.40;1.87;;;14.00;99.90;;;14.07;71.73;100210.75;5051129;28;21175;-63